Port Hueneme, California
Current Conditions -  °F | °C
As of 2:51 PM on Thursday 27 Nov 2014 (Local Time) from KOXR Reporting Station
Clear Clear  
Wind Chill: 74°   Ceiling: Unl
Heat Index: 74°   Visibility: 10mi
Dew Point: 54°   Wind: 10mph
Humidity: 50%   Direction: 290°WNW
Pressure: 30.01"   Gusts: NA
Location:  34.15°N, 119.19°W
Report Text: KOXR 272251Z 29009KT 10SM CLR 23/12 A3001 RMK AO2 SLP161 T02330122
Loading
Personal Weather Stations






























Interactive Weather Map New forecast layout! Learn more

10-Day Weather Forecast

Advertisements
Track Severe Weather on mobile